Time;durP1;ratioP1;P1;durP2;ratioP2;P2;SDS_P1;SDS_P2;PMS_P1;PMS_P2;Temp;Humidity;BMP_temperature;BMP_pressure;BME280_temperature;BME280_humidity;BME280_pressure;Samples;Min_cycle;Max_cycle;Signal;HPM_P1;HPM_P2
2022/12/21 00:00:18;;;;;;;25.23;9.83;;;7.40;99.90;;;;;;5055247;28;20761;-71
2022/12/21 00:02:44;;;;;;;23.90;9.27;;;7.40;99.90;;;;;;5030567;28;20045;-71
2022/12/21 00:05:10;;;;;;;24.07;9.13;;;7.40;99.90;;;;;;5021322;28;20071;-72
2022/12/21 00:07:36;;;;;;;48.53;10.30;;;7.40;99.90;;;;;;5026420;28;20086;-72
2022/12/21 00:10:01;;;;;;;39.47;9.20;;;7.40;99.90;;;;;;5029640;28;20053;-71
2022/12/21 00:12:27;;;;;;;27.87;8.33;;;7.40;99.90;;;;;;5029752;28;20449;-71
2022/12/21 00:14:53;;;;;;;27.40;9.77;;;7.40;99.90;;;;;;5025550;28;20036;-72
2022/12/21 00:17:18;;;;;;;27.40;8.20;;;7.30;99.90;;;;;;5021473;28;20083;-70
2022/12/21 00:19:44;;;;;;;48.80;9.93;;;7.30;99.90;;;;;;5025140;28;20051;-71
2022/12/21 00:22:10;;;;;;;47.27;10.33;;;7.30;99.90;;;;;;5043863;28;20099;-71
2022/12/21 00:24:36;;;;;;;35.50;9.43;;;7.30;99.90;;;;;;5051523;28;20045;-70
2022/12/21 00:27:04;;;;;;;37.13;8.23;;;7.20;99.90;;;;;;5046260;28;20041;-70
2022/12/21 00:29:30;;;;;;;49.33;8.25;;;7.20;99.90;;;;;;5025764;28;20167;-69
2022/12/21 00:31:56;;;;;;;35.77;8.33;;;7.20;99.90;;;;;;5025434;28;20073;-71
2022/12/21 00:34:21;;;;;;;40.07;8.53;;;7.20;99.90;;;;;;5040794;28;20053;-71
2022/12/21 00:36:49;;;;;;;38.60;7.50;;;7.10;99.90;;;;;;5034087;28;20453;-70
2022/12/21 00:39:15;;;;;;;47.47;8.00;;;7.10;99.90;;;;;;5029096;28;20044;-70
2022/12/21 00:41:42;;;;;;;27.40;7.20;;;7.10;99.90;;;;;;5026994;28;20036;-70
2022/12/21 00:44:09;;;;;;;25.50;6.18;;;7.00;99.90;;;;;;5033092;28;20129;-70
2022/12/21 00:46:35;;;;;;;27.67;7.30;;;7.00;99.90;;;;;;5024405;28;20558;-70
2022/12/21 00:49:04;;;;;;;25.25;7.57;;;6.90;99.90;;;;;;5023996;28;20107;-70
2022/12/21 00:51:31;;;;;;;20.00;7.43;;;6.90;99.90;;;;;;5035174;28;20080;-70
2022/12/21 00:53:58;;;;;;;31.50;6.90;;;6.80;99.90;;;;;;5026788;28;20047;-71
2022/12/21 00:56:25;;;;;;;24.33;6.20;;;6.80;99.90;;;;;;5043560;28;20646;-70
2022/12/21 00:58:51;;;;;;;17.48;5.93;;;6.70;99.90;;;;;;5043200;28;20095;-71
2022/12/21 01:01:23;;;;;;;16.50;5.97;;;6.70;99.90;;;;;;5023707;28;20453;-70
2022/12/21 01:03:50;;;;;;;21.90;6.45;;;6.70;99.90;;;;;;5046340;28;20052;-70
2022/12/21 01:06:24;;;;;;;17.70;6.68;;;6.70;99.90;;;;;;5030347;28;20048;-70
2022/12/21 01:08:51;;;;;;;14.23;6.05;;;6.60;99.90;;;;;;5039848;28;20239;-71
2022/12/21 01:11:18;;;;;;;18.00;6.55;;;6.60;99.90;;;;;;5033425;28;20066;-70
2022/12/21 01:13:44;;;;;;;24.63;6.53;;;6.60;99.90;;;;;;5013084;28;20096;-71
2022/12/21 01:16:13;;;;;;;18.10;6.75;;;6.60;99.90;;;;;;5021853;28;20129;-70
2022/12/21 01:18:38;;;;;;;16.30;5.43;;;6.60;99.90;;;;;;5018957;28;20052;-70
2022/12/21 01:21:04;;;;;;;17.97;6.43;;;6.50;99.90;;;;;;5049999;28;20045;-71
2022/12/21 01:23:30;;;;;;;20.13;6.33;;;6.60;99.90;;;;;;5026561;28;20504;-70
2022/12/21 01:25:56;;;;;;;18.30;6.40;;;6.60;99.90;;;;;;5022110;28;20309;-70
2022/12/21 01:28:21;;;;;;;29.33;7.70;;;6.50;99.90;;;;;;5026426;28;20048;-71
2022/12/21 01:30:47;;;;;;;20.37;5.97;;;6.50;99.90;;;;;;5044009;28;20047;-71
2022/12/21 01:33:15;;;;;;;25.13;5.70;;;6.50;99.90;;;;;;5023639;28;20045;-70
2022/12/21 01:35:42;;;;;;;27.55;5.32;;;6.50;99.90;;;;;;5043052;28;20049;-70
2022/12/21 01:38:09;;;;;;;26.08;5.93;;;6.40;99.90;;;;;;5041843;28;20081;-70
2022/12/21 01:40:36;;;;;;;34.65;6.68;;;6.40;99.90;;;;;;5011658;28;20041;-73
2022/12/21 01:43:13;;;;;;;23.98;5.82;;;6.40;99.90;;;;;;5009025;28;20515;-70
2022/12/21 01:45:39;;;;;;;25.52;5.47;;;6.40;99.90;;;;;;5022827;28;20076;-70
2022/12/21 01:48:12;;;;;;;23.93;5.87;;;6.40;99.90;;;;;;5027433;28;20183;-70
2022/12/21 01:50:55;;;;;;;31.20;6.18;;;6.40;99.90;;;;;;5048166;28;20056;-70
2022/12/21 01:53:50;;;;;;;30.27;5.30;;;6.30;99.90;;;;;;5033323;28;20045;-71
2022/12/21 01:56:22;;;;;;;34.53;5.50;;;6.30;99.90;;;;;;5020875;28;20079;-70
2022/12/21 01:58:48;;;;;;;19.17;5.55;;;6.30;99.90;;;;;;5028635;28;20055;-70
2022/12/21 02:01:14;;;;;;;14.70;5.17;;;6.20;99.90;;;;;;5043598;28;20041;-71
2022/12/21 02:03:47;;;;;;;22.50;5.40;;;6.20;99.90;;;;;;5043592;28;20258;-72
2022/12/21 02:06:22;;;;;;;20.73;5.32;;;6.20;99.90;;;;;;5013926;28;20079;-72
2022/12/21 02:08:48;;;;;;;22.02;5.22;;;6.20;99.90;;;;;;5026814;28;20139;-70
2022/12/21 02:11:15;;;;;;;14.07;4.60;;;6.20;99.90;;;;;;5042529;28;20458;-69
2022/12/21 02:13:41;;;;;;;;;;;6.20;99.90;;;;;;5049186;28;20033;-72
2022/12/21 02:16:22;;;;;;;34.90;5.15;;;6.20;99.90;;;;;;5050519;28;20314;-71
2022/12/21 02:18:54;;;;;;;23.63;4.57;;;6.20;99.90;;;;;;5040906;28;20497;-71
2022/12/21 02:21:26;;;;;;;22.23;4.32;;;6.20;99.90;;;;;;5059043;28;20036;-71
2022/12/21 02:24:14;;;;;;;30.48;4.40;;;6.20;99.90;;;;;;5028619;28;20044;-71
2022/12/21 02:27:21;;;;;;;17.25;5.05;;;6.10;99.90;;;;;;5051056;28;20119;-71
2022/12/21 02:29:55;;;;;;;15.43;4.35;;;6.10;99.90;;;;;;5007596;28;20049;-70
2022/12/21 02:33:04;;;;;;;17.98;4.68;;;6.00;99.90;;;;;;5047120;28;20036;-70
2022/12/21 02:35:36;;;;;;;29.63;4.53;;;6.00;99.90;;;;;;5058220;28;20146;-70
2022/12/21 02:38:35;;;;;;;25.45;4.53;;;6.00;99.90;;;;;;5050157;28;20039;-71
2022/12/21 02:41:16;;;;;;;27.38;4.93;;;6.00;99.90;;;;;;4996411;28;20617;-70
2022/12/21 02:44:14;;;;;;;16.58;4.10;;;5.90;99.90;;;;;;5017517;28;20080;-70
2022/12/21 02:46:55;;;;;;;15.57;4.97;;;5.90;99.90;;;;;;5026050;28;20130;-70
2022/12/21 02:49:59;;;;;;;19.40;4.63;;;5.90;99.90;;;;;;5016212;28;20080;-70
2022/12/21 02:52:43;;;;;;;15.32;4.38;;;5.90;99.90;;;;;;5046556;28;20044;-70
2022/12/21 02:55:12;;;;;;;14.65;4.30;;;5.80;99.90;;;;;;5029198;28;20558;-70
2022/12/21 02:57:40;;;;;;;15.82;4.03;;;5.90;99.90;;;;;;5034626;28;20060;-71
2022/12/21 03:00:10;;;;;;;19.90;4.55;;;5.80;99.90;;;;;;5036203;28;20490;-70
2022/12/21 03:06:13;;;;;;;19.75;5.32;;;5.80;99.90;;;;;;5049022;28;20044;-70
2022/12/21 03:09:10;;;;;;;36.00;5.13;;;5.80;99.90;;;;;;5047104;28;20045;-70
2022/12/21 03:12:05;;;;;;;20.23;5.70;;;5.80;99.90;;;;;;5049322;28;20561;-70
2022/12/21 03:14:58;;;;;;;22.90;5.40;;;5.70;99.90;;;;;;5037056;28;20141;-70
2022/12/21 03:17:46;;;;;;;19.58;5.03;;;5.70;99.90;;;;;;5048721;28;20056;-69
2022/12/21 03:20:33;;;;;;;24.70;5.07;;;5.70;99.90;;;;;;5050283;28;20579;-70
2022/12/21 03:23:03;;;;;;;13.95;4.75;;;5.80;99.90;;;;;;5025328;28;20041;-70
2022/12/21 03:25:39;;;;;;;26.70;4.60;;;5.70;99.90;;;;;;5029705;28;20041;-70
2022/12/21 03:28:11;;;;;;;18.55;4.80;;;5.80;99.90;;;;;;5029561;28;20115;-70
2022/12/21 03:30:45;;;;;;;19.77;5.25;;;5.70;99.90;;;;;;5034172;28;20044;-70
2022/12/21 03:33:14;;;;;;;17.33;4.40;;;5.70;99.90;;;;;;5029894;28;20119;-70
2022/12/21 03:35:50;;;;;;;20.20;4.53;;;5.70;99.90;;;;;;5051403;28;20041;-70
2022/12/21 03:38:30;;;;;;;28.80;4.65;;;5.70;99.90;;;;;;5015326;28;20052;-70
2022/12/21 03:41:01;;;;;;;10.88;4.15;;;5.70;99.90;;;;;;5043186;28;20052;-70
2022/12/21 03:43:34;;;;;;;11.52;4.15;;;5.70;99.90;;;;;;5056532;28;20048;-70
2022/12/21 03:46:06;;;;;;;22.10;4.93;;;5.70;99.90;;;;;;5037458;28;20264;-70
2022/12/21 03:48:36;;;;;;;17.80;4.63;;;5.70;99.90;;;;;;5044214;28;20041;-70
2022/12/21 03:51:28;;;;;;;27.63;4.13;;;5.70;99.90;;;;;;5055171;28;20068;-70
2022/12/21 03:54:02;;;;;;;21.05;3.92;;;5.70;99.90;;;;;;5050514;28;20048;-70
2022/12/21 03:56:35;;;;;;;28.20;4.38;;;5.70;99.90;;;;;;5019141;28;20406;-69
2022/12/21 03:59:01;;;;;;;11.57;4.18;;;5.70;99.90;;;;;;5053960;28;20375;-70
2022/12/21 04:01:30;;;;;;;26.30;4.43;;;5.70;99.90;;;;;;5050554;28;20052;-70
2022/12/21 04:04:04;;;;;;;20.25;4.57;;;5.70;99.90;;;;;;5048102;28;20071;-70
2022/12/21 04:06:35;;;;;;;16.20;4.13;;;5.80;99.90;;;;;;5045655;28;20036;-70
2022/12/21 04:09:05;;;;;;;13.75;4.40;;;5.70;99.90;;;;;;5036024;28;20078;-70
2022/12/21 04:14:20;;;;;;;16.77;4.20;;;5.70;99.90;;;;;;5045536;28;20090;-70
2022/12/21 04:16:46;;;;;;;10.73;4.55;;;5.70;99.90;;;;;;5045397;28;20047;-70
2022/12/21 04:21:56;;;;;;;13.00;4.88;;;5.80;99.90;;;;;;5049358;28;20093;-70
2022/12/21 04:29:52;;;;;;;10.15;4.68;;;5.80;99.90;;;;;;5043586;28;20048;-69
2022/12/21 04:32:18;;;;;;;18.90;5.23;;;5.80;99.90;;;;;;5032805;28;20097;-70
2022/12/21 04:34:43;;;;;;;16.43;5.27;;;5.70;99.90;;;;;;5046487;28;20040;-70
2022/12/21 04:39:53;;;;;;;15.02;4.82;;;5.70;99.90;;;;;;5015313;28;20241;-70
2022/12/21 04:42:19;;;;;;;10.90;4.53;;;5.70;99.90;;;;;;5059042;28;20286;-71
2022/12/21 04:44:44;;;;;;;11.50;4.97;;;5.70;99.90;;;;;;5047436;28;20033;-71
2022/12/21 04:47:11;;;;;;;12.27;4.60;;;5.80;99.90;;;;;;5051555;28;20056;-71
2022/12/21 04:49:37;;;;;;;;;;;5.70;99.90;;;;;;5061835;28;20103;-71
2022/12/21 04:52:02;;;;;;;11.77;4.80;;;5.70;99.90;;;;;;5034058;28;20320;-71
2022/12/21 04:54:28;;;;;;;14.93;4.67;;;5.70;99.90;;;;;;5028307;28;20037;-71
2022/12/21 04:56:54;;;;;;;14.30;5.03;;;5.70;99.90;;;;;;5049619;28;20719;-71
2022/12/21 04:59:19;;;;;;;17.27;5.00;;;5.70;99.90;;;;;;5050528;28;20083;-70
2022/12/21 05:01:45;;;;;;;15.50;4.90;;;5.70;99.90;;;;;;5029181;28;20085;-70
2022/12/21 05:04:11;;;;;;;14.43;4.60;;;5.70;99.90;;;;;;5050971;28;20063;-70
2022/12/21 05:06:36;;;;;;;15.37;5.60;;;5.70;99.90;;;;;;5027954;28;20040;-70
2022/12/21 05:09:05;;;;;;;15.13;5.20;;;5.70;99.90;;;;;;5034005;28;20052;-70
2022/12/21 05:11:33;;;;;;;16.02;5.13;;;5.70;99.90;;;;;;5046426;28;20296;-71
2022/12/21 05:14:10;;;;;;;15.13;5.57;;;5.70;99.90;;;;;;5082244;22;21083;-86
2022/12/21 05:17:00;;;;;;;15.45;5.20;;;5.70;99.90;;;;;;5009205;28;20045;-83
2022/12/21 05:19:34;;;;;;;13.82;5.10;;;5.70;99.90;;;;;;4998746;28;20052;-87
2022/12/21 05:22:00;;;;;;;15.43;5.25;;;5.70;99.90;;;;;;5007823;28;20060;-86
2022/12/21 05:24:31;;;;;;;16.60;5.43;;;5.70;99.90;;;;;;5001732;28;20053;-87
2022/12/21 05:26:57;;;;;;;20.40;5.68;;;5.70;99.90;;;;;;5014288;28;20131;-86
2022/12/21 05:29:28;;;;;;;18.13;5.40;;;5.70;99.90;;;;;;4994359;28;20420;-86
2022/12/21 05:31:58;;;;;;;17.15;5.47;;;5.70;99.90;;;;;;5013683;28;20184;-86
2022/12/21 05:34:35;;;;;;;16.77;5.10;;;5.70;99.90;;;;;;4997049;28;20152;-86
2022/12/21 05:37:00;;;;;;;18.83;4.88;;;5.60;99.90;;;;;;5025551;28;20434;-86
2022/12/21 05:39:29;;;;;;;16.97;5.33;;;5.60;99.90;;;;;;5028746;28;20046;-86
2022/12/21 05:41:58;;;;;;;20.05;5.43;;;5.70;99.90;;;;;;5004269;28;20053;-86
2022/12/21 05:44:29;;;;;;;18.13;5.63;;;5.60;99.90;;;;;;5006289;28;20053;-87
2022/12/21 05:46:58;;;;;;;10.60;4.70;;;5.60;99.90;;;;;;5003466;28;20583;-86
2022/12/21 05:49:27;;;;;;;12.65;4.93;;;5.60;99.90;;;;;;5014539;28;20557;-87
2022/12/21 05:51:56;;;;;;;12.65;4.60;;;5.60;99.90;;;;;;4994981;28;20090;-86
2022/12/21 05:54:27;;;;;;;12.55;4.60;;;5.60;99.90;;;;;;4991465;28;20041;-86
2022/12/21 05:56:57;;;;;;;23.55;5.70;;;5.70;99.90;;;;;;4998677;28;20040;-85
2022/12/21 05:59:26;;;;;;;25.05;5.20;;;5.60;99.90;;;;;;5001365;28;20034;-88
2022/12/21 06:02:00;;;;;;;20.08;4.75;;;5.70;99.90;;;;;;4999104;28;20095;-86
2022/12/21 06:04:34;;;;;;;26.70;5.10;;;5.60;99.90;;;;;;5004310;28;20529;-85
2022/12/21 06:07:15;;;;;;;44.35;5.90;;;5.60;99.90;;;;;;4997366;28;20065;-85
2022/12/21 06:10:16;;;;;;;29.05;5.47;;;5.60;99.90;;;;;;4997737;28;20079;-85
2022/12/21 06:13:10;;;;;;;;;;;;;;;;;;;;;
2022/12/21 06:15:44;;;;;;;18.08;4.97;;;5.70;99.90;;;;;;5009506;28;20137;-85
2022/12/21 06:18:21;;;;;;;26.45;6.28;;;5.60;99.90;;;;;;5014504;28;20041;-86
2022/12/21 06:20:52;;;;;;;17.75;5.90;;;5.70;99.90;;;;;;4988669;28;20204;-85
2022/12/21 06:23:17;;;;;;;13.07;6.05;;;5.60;99.90;;;;;;5023770;28;20045;-86
2022/12/21 06:25:46;;;;;;;15.13;5.67;;;5.60;99.90;;;;;;4990293;28;20064;-86
2022/12/21 06:28:15;;;;;;;24.98;7.30;;;5.60;99.90;;;;;;5009847;28;20591;-86
2022/12/21 06:30:44;;;;;;;20.13;6.63;;;5.70;99.90;;;;;;4993659;28;20128;-86
2022/12/21 06:33:15;;;;;;;16.97;6.00;;;5.70;99.90;;;;;;5016238;28;20164;-86
2022/12/21 06:35:41;;;;;;;13.88;5.60;;;5.70;99.90;;;;;;5007996;28;20057;-86
2022/12/21 06:38:07;;;;;;;14.15;6.35;;;5.70;99.90;;;;;;4986844;28;20076;-86
2022/12/21 06:40:32;;;;;;;14.03;6.53;;;5.70;99.90;;;;;;5010156;28;20041;-86
2022/12/21 06:42:58;;;;;;;19.90;7.03;;;5.70;99.90;;;;;;4999062;28;20045;-87
2022/12/21 06:45:30;;;;;;;18.93;6.50;;;5.70;99.90;;;;;;5008163;28;20123;-85
2022/12/21 06:48:01;;;;;;;21.75;6.22;;;5.70;99.90;;;;;;5005084;28;20045;-85
2022/12/21 06:50:29;;;;;;;23.60;6.45;;;5.70;99.90;;;;;;5026311;28;20049;-86
2022/12/21 06:53:00;;;;;;;20.17;7.18;;;5.70;99.90;;;;;;5011086;28;20489;-86
2022/12/21 06:55:31;;;;;;;22.83;7.80;;;5.70;99.90;;;;;;5004386;28;20041;-86
2022/12/21 06:57:57;;;;;;;18.83;6.78;;;5.70;99.90;;;;;;5014213;28;20521;-86
2022/12/21 07:00:26;;;;;;;19.63;6.82;;;5.80;99.90;;;;;;5027604;28;20076;-86
2022/12/21 07:02:52;;;;;;;16.50;7.07;;;5.80;99.90;;;;;;4992168;28;20044;-85
2022/12/21 07:05:18;;;;;;;19.90;7.70;;;5.80;99.90;;;;;;5006511;28;20548;-86
2022/12/21 07:08:02;;;;;;;17.97;7.33;;;5.70;99.90;;;;;;5017861;28;20306;-86
2022/12/21 07:10:30;;;;;;;21.52;6.80;;;5.80;99.90;;;;;;5020659;28;20522;-86
2022/12/21 07:13:09;;;;;;;17.50;7.10;;;5.90;99.90;;;;;;5026670;28;20135;-87
2022/12/21 07:15:59;;;;;;;;;;;;;;;;;;;;;
2022/12/21 07:18:39;;;;;;;16.58;6.93;;;5.80;99.90;;;;;;5010151;28;20251;-87
2022/12/21 07:21:22;;;;;;;18.70;7.18;;;5.80;99.90;;;;;;5012451;28;20045;-89
2022/12/21 07:23:48;;;;;;;17.02;6.75;;;5.80;99.90;;;;;;4995330;28;20508;-87
2022/12/21 07:26:30;;;;;;;15.75;6.55;;;5.80;99.90;;;;;;4989767;28;20057;-88
2022/12/21 07:28:59;;;;;;;19.00;6.85;;;5.80;99.90;;;;;;5034656;28;20104;-86
2022/12/21 07:31:33;;;;;;;19.63;7.90;;;5.80;99.90;;;;;;5011779;28;20145;-87
2022/12/21 07:34:01;;;;;;;20.92;7.30;;;5.80;99.90;;;;;;4997521;28;20046;-86
2022/12/21 07:36:27;;;;;;;16.47;7.80;;;5.80;99.90;;;;;;4995872;28;20045;-87
2022/12/21 07:38:58;;;;;;;21.17;7.82;;;5.80;99.90;;;;;;4995164;28;20030;-85
2022/12/21 07:41:39;;;;;;;22.70;7.38;;;5.80;99.90;;;;;;5013462;28;20128;-87
2022/12/21 07:44:10;;;;;;;17.33;6.95;;;5.80;99.90;;;;;;5030858;28;20429;-87
2022/12/21 07:46:36;;;;;;;24.85;7.78;;;5.80;99.90;;;;;;4997099;28;20075;-87
2022/12/21 07:49:02;;;;;;;15.67;7.20;;;5.80;99.90;;;;;;5017628;28;20130;-88
2022/12/21 07:51:30;;;;;;;20.52;7.63;;;5.80;99.90;;;;;;4993701;28;20045;-87
2022/12/21 07:53:59;;;;;;;23.83;7.50;;;5.80;99.90;;;;;;5026138;28;20552;-87
2022/12/21 07:56:26;;;;;;;25.73;7.90;;;5.80;99.90;;;;;;5016415;28;20038;-88
2022/12/21 07:59:01;;;;;;;20.42;7.35;;;5.80;99.90;;;;;;5010026;28;20110;-89
2022/12/21 08:01:27;;;;;;;22.23;8.13;;;5.80;99.90;;;;;;5030396;28;20056;-87
2022/12/21 08:04:00;;;;;;;18.83;7.63;;;5.80;99.90;;;;;;5020244;28;20030;-88
2022/12/21 08:06:26;;;;;;;16.90;7.60;;;5.80;99.90;;;;;;5011619;28;20099;-88
2022/12/21 08:08:52;;;;;;;21.88;7.75;;;5.80;99.90;;;;;;5025214;28;20052;-87
2022/12/21 08:11:22;;;;;;;23.38;8.15;;;5.80;99.90;;;;;;5014561;28;20192;-87
2022/12/21 08:13:53;;;;;;;20.67;8.35;;;5.70;99.90;;;;;;5013318;28;20606;-87
2022/12/21 08:16:37;;;;;;;22.83;8.93;;;5.90;99.90;;;;;;4998042;28;20129;-89
2022/12/21 08:19:26;;;;;;;19.17;7.93;;;5.90;99.90;;;;;;5018976;28;20068;-88
2022/12/21 08:21:57;;;;;;;20.05;8.38;;;5.90;99.90;;;;;;4995318;28;20040;-87
2022/12/21 08:24:25;;;;;;;21.20;8.30;;;6.00;99.90;;;;;;5010948;28;20486;-85
2022/12/21 08:26:59;;;;;;;19.52;8.52;;;6.00;99.90;;;;;;4994248;28;20049;-83
2022/12/21 08:29:28;;;;;;;21.33;8.07;;;6.00;99.90;;;;;;4990154;28;20053;-84
2022/12/21 08:31:59;;;;;;;22.63;8.77;;;6.00;99.90;;;;;;5012872;28;20042;-85
2022/12/21 08:35:11;;;;;;;20.27;7.85;;;6.00;99.90;;;;;;5011686;28;20056;-88
2022/12/21 08:37:46;;;;;;;17.30;8.32;;;6.00;99.90;;;;;;4919535;28;20570;-89
2022/12/21 08:40:12;;;;;;;28.15;8.77;;;6.00;99.90;;;;;;5031786;28;20049;-85
2022/12/21 08:42:43;;;;;;;27.05;9.98;;;6.10;99.90;;;;;;5015879;28;20041;-88
2022/12/21 08:45:11;;;;;;;19.48;8.02;;;6.10;99.90;;;;;;5013985;28;20041;-85
2022/12/21 08:47:37;;;;;;;16.95;8.02;;;6.10;99.90;;;;;;5003745;28;20066;-85
2022/12/21 08:50:03;;;;;;;30.00;9.20;;;6.10;99.90;;;;;;5001155;28;20045;-86
2022/12/21 08:53:39;;;;;;;23.50;8.32;;;6.10;99.90;;;;;;5010250;28;20060;-86
2022/12/21 08:56:16;;;;;;;24.15;9.13;;;6.20;99.90;;;;;;4975471;28;20048;-87
2022/12/21 08:58:54;;;;;;;29.25;9.85;;;6.20;99.90;;;;;;5016417;28;20083;-87
2022/12/21 09:01:31;;;;;;;23.45;10.23;;;6.20;99.90;;;;;;4994867;28;20045;-86
2022/12/21 09:04:03;;;;;;;22.70;9.57;;;6.30;99.90;;;;;;5033913;28;20313;-86
2022/12/21 09:06:29;;;;;;;24.67;9.75;;;6.30;99.90;;;;;;5006518;28;20128;-85
2022/12/21 09:08:58;;;;;;;26.77;9.30;;;6.40;99.90;;;;;;4994771;28;20080;-86
2022/12/21 09:11:58;;;;;;;28.23;10.53;;;6.30;99.90;;;;;;4992633;28;20077;-86
2022/12/21 09:14:31;;;;;;;28.02;9.82;;;6.40;99.90;;;;;;5002473;28;20045;-86
2022/12/21 09:17:05;;;;;;;20.70;9.60;;;6.50;99.90;;;;;;5018839;28;20440;-86
2022/12/21 09:19:33;;;;;;;26.67;9.15;;;6.50;99.90;;;;;;4993504;28;20531;-86
2022/12/21 09:22:16;;;;;;;28.90;10.13;;;6.50;99.90;;;;;;4994980;28;20449;-86
2022/12/21 09:24:42;;;;;;;21.77;9.20;;;6.50;99.90;;;;;;5019529;28;20586;-86
2022/12/21 09:27:33;;;;;;;32.30;9.90;;;6.50;99.90;;;;;;5008262;28;20137;-86
2022/12/21 09:30:02;;;;;;;30.25;10.27;;;6.50;99.90;;;;;;4993967;28;20052;-86
2022/12/21 09:32:51;;;;;;;26.35;10.70;;;6.50;99.90;;;;;;5012735;28;20528;-86
2022/12/21 09:35:17;;;;;;;26.65;9.75;;;6.60;99.90;;;;;;4995407;28;20080;-88
2022/12/21 09:38:00;;;;;;;;;;;;;;;;;;;;;
2022/12/21 09:40:34;;;;;;;29.50;10.70;;;6.50;99.90;;;;;;5026695;28;20050;-86
2022/12/21 09:43:27;;;;;;;23.90;9.80;;;6.60;99.90;;;;;;4990909;28;20052;-85
2022/12/21 09:46:15;;;;;;;29.10;11.48;;;6.60;99.90;;;;;;4990567;28;20072;-83
2022/12/21 09:49:05;;;;;;;28.88;10.13;;;6.60;99.90;;;;;;5018780;28;20090;-84
2022/12/21 09:51:32;;;;;;;29.13;10.65;;;6.60;99.90;;;;;;5002120;28;20049;-86
2022/12/21 09:54:01;;;;;;;24.23;10.20;;;6.60;99.90;;;;;;5028840;28;20049;-85
2022/12/21 09:56:39;;;;;;;27.20;10.00;;;6.60;99.90;;;;;;5001190;28;20757;-86
2022/12/21 09:59:33;;;;;;;22.17;9.60;;;6.70;99.90;;;;;;4987978;28;20576;-83
2022/12/21 10:02:36;;;;;;;21.50;9.15;;;6.70;99.90;;;;;;4985735;28;20060;-84
2022/12/21 10:05:15;;;;;;;22.02;9.25;;;6.70;99.90;;;;;;5015480;28;20092;-84
2022/12/21 10:07:58;;;;;;;27.95;9.60;;;6.70;99.90;;;;;;4998450;28;20186;-84
2022/12/21 10:10:37;;;;;;;28.20;9.25;;;6.70;99.90;;;;;;5033055;28;20033;-84
2022/12/21 10:13:43;;;;;;;23.48;10.20;;;6.70;99.90;;;;;;5013420;28;20099;-85
2022/12/21 10:16:25;;;;;;;21.33;8.80;;;6.80;99.90;;;;;;5007937;28;20037;-85
2022/12/21 10:19:16;;;;;;;28.13;10.45;;;6.80;99.90;;;;;;4994552;28;20575;-85
2022/12/21 10:22:13;;;;;;;31.85;10.18;;;6.80;99.90;;;;;;5007220;28;20048;-84
2022/12/21 10:24:48;;;;;;;19.75;8.45;;;6.80;99.90;;;;;;5026433;28;20121;-85
2022/12/21 10:27:44;;;;;;;28.95;10.23;;;6.90;99.90;;;;;;5009798;28;20535;-87
2022/12/21 10:30:18;;;;;;;23.63;9.60;;;6.90;99.90;;;;;;5029817;28;20173;-86
2022/12/21 10:32:49;;;;;;;25.13;9.00;;;6.90;99.90;;;;;;5026760;28;20139;-85
2022/12/21 10:35:26;;;;;;;23.25;9.32;;;6.90;99.90;;;;;;5032500;28;20713;-85
2022/12/21 10:38:25;;;;;;;26.38;8.55;;;6.90;99.90;;;;;;4995994;28;20056;-85
2022/12/21 10:41:00;;;;;;;20.65;8.85;;;6.90;99.90;;;;;;5012044;28;20049;-86
2022/12/21 10:43:52;;;;;;;25.23;9.07;;;7.00;99.90;;;;;;5000863;28;20053;-85
2022/12/21 10:46:21;;;;;;;24.83;8.43;;;7.00;99.90;;;;;;4994169;28;20121;-86
2022/12/21 10:49:16;;;;;;;24.38;9.43;;;7.00;99.90;;;;;;4997911;28;20443;-85
2022/12/21 10:51:49;;;;;;;29.40;8.90;;;7.00;99.90;;;;;;5000982;28;20052;-86
2022/12/21 10:54:33;;;;;;;21.42;8.50;;;7.10;99.90;;;;;;5006035;28;20065;-85
2022/12/21 10:57:00;;;;;;;28.10;9.63;;;7.10;99.90;;;;;;5028361;28;20128;-85
2022/12/21 10:59:40;;;;;;;24.55;9.20;;;7.10;99.90;;;;;;4993498;28;20120;-85
2022/12/21 11:02:09;;;;;;;24.75;8.60;;;7.20;99.90;;;;;;5001444;28;20065;-87
2022/12/21 11:04:37;;;;;;;25.88;8.40;;;7.30;99.90;;;;;;5013519;28;20037;-85
2022/12/21 11:07:23;;;;;;;26.65;9.68;;;7.30;99.90;;;;;;5009111;28;20176;-85
2022/12/21 11:10:32;;;;;;;27.73;9.65;;;7.40;99.90;;;;;;5014697;28;20192;-85
2022/12/21 11:13:09;;;;;;;33.55;8.95;;;7.50;99.90;;;;;;5006738;28;20045;-86
2022/12/21 11:16:06;;;;;;;28.85;10.30;;;7.60;99.90;;;;;;5018841;28;20083;-85
2022/12/21 11:18:38;;;;;;;33.13;11.27;;;7.70;99.90;;;;;;5013627;28;20048;-87
2022/12/21 11:21:31;;;;;;;31.23;10.50;;;7.70;99.90;;;;;;5016681;28;20115;-86
2022/12/21 11:24:00;;;;;;;26.40;9.65;;;7.80;99.90;;;;;;5015795;28;20046;-86
2022/12/21 11:26:35;;;;;;;28.40;9.90;;;7.80;99.90;;;;;;4996340;28;20072;-86
2022/12/21 11:29:11;;;;;;;32.65;10.52;;;7.80;99.90;;;;;;4994683;28;20052;-85
2022/12/21 11:31:40;;;;;;;29.55;9.77;;;7.90;99.90;;;;;;5029857;28;20037;-85
2022/12/21 11:34:24;;;;;;;26.70;10.25;;;8.00;99.90;;;;;;5032534;28;20477;-85
2022/12/21 11:36:59;;;;;;;21.67;9.02;;;8.00;99.90;;;;;;5020952;28;20452;-85
2022/12/21 11:39:44;;;;;;;31.40;10.65;;;8.10;99.90;;;;;;5034185;28;20041;-85
2022/12/21 11:42:21;;;;;;;29.58;10.90;;;8.10;99.90;;;;;;5010682;28;20109;-85
2022/12/21 11:45:10;;;;;;;22.55;10.05;;;8.10;99.90;;;;;;5030324;28;20076;-85
2022/12/21 11:48:14;;;;;;;31.75;10.90;;;8.20;99.90;;;;;;5012095;28;20092;-85
2022/12/21 11:50:59;;;;;;;25.42;10.35;;;8.20;99.90;;;;;;4971620;28;20034;-86
2022/12/21 11:53:53;;;;;;;25.67;9.20;;;8.30;99.90;;;;;;4959123;28;20050;-86
2022/12/21 11:56:32;;;;;;;20.35;8.30;;;8.40;99.90;;;;;;4990924;28;20072;-85
2022/12/21 11:59:44;;;;;;;25.67;9.10;;;8.50;99.90;;;;;;4989607;28;20046;-85
2022/12/21 12:02:30;;;;;;;30.92;10.07;;;8.50;99.90;;;;;;4991494;28;20041;-87
2022/12/21 12:05:15;;;;;;;27.88;8.75;;;8.50;99.90;;;;;;4997805;28;20049;-86
2022/12/21 12:08:03;;;;;;;19.52;8.07;;;8.60;99.90;;;;;;4999347;28;20037;-86
2022/12/21 12:10:53;;;;;;;29.90;9.43;;;8.60;99.90;;;;;;5026876;28;20122;-85
2022/12/21 12:14:15;;;;;;;;;;;;;;;;;;;;;
2022/12/21 12:25:06;;;;;;;23.38;8.52;;;8.90;99.90;;;;;;5048125;22;20047;-69
2022/12/21 12:27:50;;;;;;;25.05;8.43;;;8.90;99.90;;;;;;5082059;28;20086;-69
2022/12/21 12:30:22;;;;;;;23.15;8.60;;;8.90;99.90;;;;;;5087121;28;20119;-69
2022/12/21 12:33:08;;;;;;;21.98;7.47;;;8.90;99.90;;;;;;5092558;28;20040;-71
2022/12/21 12:35:55;;;;;;;23.52;8.88;;;9.00;99.90;;;;;;5080088;28;20208;-70
2022/12/21 12:38:41;;;;;;;18.98;8.68;;;8.90;99.90;;;;;;5053411;28;20062;-69
2022/12/21 12:41:39;;;;;;;22.48;9.25;;;8.90;99.90;;;;;;5086139;28;20064;-70
2022/12/21 12:44:33;;;;;;;27.48;9.05;;;8.90;99.90;;;;;;5082476;28;20500;-69
2022/12/21 12:47:18;;;;;;;21.70;9.07;;;8.80;99.90;;;;;;5080295;28;20250;-69
2022/12/21 12:50:04;;;;;;;18.95;9.38;;;8.80;99.90;;;;;;5087819;28;20515;-68
2022/12/21 12:52:38;;;;;;;21.35;7.95;;;8.80;99.90;;;;;;5085305;28;20047;-69
2022/12/21 12:55:28;;;;;;;23.90;9.05;;;8.70;99.90;;;;;;5086225;28;20342;-70
2022/12/21 12:58:17;;;;;;;22.92;8.48;;;8.80;99.90;;;;;;5068213;28;20093;-68
2022/12/21 13:01:09;;;;;;;21.70;9.27;;;8.70;99.90;;;;;;5058090;28;20047;-68
2022/12/21 13:04:08;;;;;;;21.15;9.00;;;8.70;99.90;;;;;;5076233;28;20081;-69
2022/12/21 13:06:52;;;;;;;23.38;9.48;;;8.60;99.90;;;;;;5084476;28;20565;-69
2022/12/21 13:09:32;;;;;;;26.85;11.32;;;8.60;99.90;;;;;;5085637;28;20051;-71
2022/12/21 13:12:21;;;;;;;19.08;10.18;;;8.50;99.90;;;;;;5068122;28;20115;-71
2022/12/21 13:14:58;;;;;;;23.10;10.65;;;8.50;99.90;;;;;;5085744;28;20039;-71
2022/12/21 13:17:40;;;;;;;23.80;11.05;;;8.40;99.90;;;;;;5065245;28;20044;-71
2022/12/21 13:20:21;;;;;;;26.05;11.48;;;8.40;99.90;;;;;;5083341;28;20443;-71
2022/12/21 13:23:00;;;;;;;24.98;11.88;;;8.30;99.90;;;;;;5086311;28;20069;-76
2022/12/21 13:26:01;;;;;;;25.73;11.95;;;8.20;99.90;;;;;;5065705;28;20127;-73
2022/12/21 13:28:42;;;;;;;25.88;12.00;;;8.20;99.90;;;;;;5061902;28;20049;-71
2022/12/21 13:31:11;;;;;;;23.02;11.68;;;8.10;99.90;;;;;;5085532;28;20044;-73
2022/12/21 13:33:49;;;;;;;28.63;10.38;;;8.10;99.90;;;;;;5077971;28;20071;-71
2022/12/21 13:36:18;;;;;;;25.95;11.43;;;8.10;99.90;;;;;;5062220;28;20127;-71
2022/12/21 13:38:52;;;;;;;22.75;11.48;;;8.00;99.90;;;;;;5082860;28;20044;-70
2022/12/21 13:41:26;;;;;;;20.30;11.15;;;8.10;99.90;;;;;;5076187;28;20447;-72
2022/12/21 13:44:03;;;;;;;23.85;11.27;;;8.00;99.90;;;;;;5064700;28;20036;-71
2022/12/21 13:46:31;;;;;;;25.58;12.52;;;8.00;99.90;;;;;;5081246;28;20145;-74
2022/12/21 13:49:16;;;;;;;20.73;11.32;;;8.00;99.90;;;;;;5064454;28;20124;-71
2022/12/21 13:51:47;;;;;;;21.95;11.48;;;8.10;99.90;;;;;;5084372;28;20051;-71
2022/12/21 13:54:21;;;;;;;26.17;11.65;;;8.00;99.90;;;;;;5084591;28;20046;-71
2022/12/21 13:56:50;;;;;;;27.63;10.90;;;8.00;99.90;;;;;;5067704;28;20091;-71
2022/12/21 13:59:24;;;;;;;26.17;11.20;;;8.00;99.90;;;;;;5072804;28;20036;-72